Time;durP1;ratioP1;P1;durP2;ratioP2;P2;SDS_P1;SDS_P2;PMS_P1;PMS_P2;Temp;Humidity;BMP_temperature;BMP_pressure;BME280_temperature;BME280_humidity;BME280_pressure;Samples;Min_cycle;Max_cycle;Signal;HPM_P1;HPM_P2
2022/07/02 00:02:10;;;;;;;13.70;9.63;;;;;;;22.45;79.70;98859.75;5053794;28;20167;-85
2022/07/02 00:04:40;;;;;;;11.53;9.27;;;;;;;23.22;80.73;98990.41;5052900;28;20172;-85
2022/07/02 00:07:07;;;;;;;12.47;9.60;;;;;;;24.50;79.37;99202.38;5052717;28;20161;-85
2022/07/02 00:09:32;;;;;;;14.43;9.83;;;;;;;24.40;78.23;99174.91;5052562;28;20185;-86
2022/07/02 00:11:58;;;;;;;11.67;10.13;;;;;;;23.89;78.75;99106.66;5052572;28;20234;-85
2022/07/02 00:14:25;;;;;;;11.67;9.63;;;;;;;21.78;80.67;98789.16;5052417;28;20257;-84
2022/07/02 00:16:53;;;;;;;14.97;9.67;;;;;;;24.74;81.61;99304.69;5052761;28;20161;-84
2022/07/02 00:19:20;;;;;;;12.90;9.57;;;;;;;24.00;83.42;99229.78;5052631;28;20153;-84
2022/07/02 00:21:46;;;;;;;13.43;10.50;;;;;;;20.91;88.25;98844.84;5052135;28;20168;-82
2022/07/02 00:24:11;;;;;;;13.30;10.53;;;;;;;23.15;88.94;99227.28;5052579;28;20161;-84
2022/07/02 00:26:45;;;;;;;14.30;11.50;;;;;;;22.40;86.92;99042.09;5052538;28;20223;-84
2022/07/02 00:29:22;;;;;;;17.37;10.83;;;;;;;22.32;85.44;99003.50;5052640;28;20193;-85
2022/07/02 00:31:49;;;;;;;14.57;10.57;;;;;;;23.56;84.92;99208.78;5050930;28;20897;-85
2022/07/02 00:34:16;;;;;;;12.97;10.23;;;;;;;23.43;85.58;99171.03;5041878;28;20552;-85
2022/07/02 00:36:43;;;;;;;14.53;10.93;;;;;;;23.07;84.13;99117.19;5030891;28;20178;-85
2022/07/02 00:39:08;;;;;;;14.27;10.27;;;;;;;24.28;83.62;99287.19;5032195;28;20174;-84
2022/07/02 00:41:35;;;;;;;13.43;10.77;;;;;;;23.55;84.80;99170.88;5032530;28;20173;-85
2022/07/02 00:44:02;;;;;;;13.57;10.83;;;;;;;22.15;86.28;98964.97;5032354;28;20166;-84
2022/07/02 00:46:28;;;;;;;12.73;10.70;;;;;;;21.80;87.49;98932.63;5032042;28;20158;-85
2022/07/02 00:48:54;;;;;;;15.83;11.33;;;;;;;21.02;87.43;98793.28;5032075;28;20168;-84
2022/07/02 00:51:19;;;;;;;15.40;11.27;;;;;;;21.14;88.39;98843.00;5031712;28;20608;-84
2022/07/02 00:53:45;;;;;;;13.70;11.50;;;;;;;21.61;88.90;98944.81;5032141;28;20212;-82
2022/07/02 00:56:10;;;;;;;16.93;12.17;;;;;;;20.51;91.37;98809.94;5032005;28;20176;-84
2022/07/02 00:58:36;;;;;;;16.57;12.20;;;;;;;22.68;91.92;99154.56;5032284;28;20273;-83
2022/07/02 01:01:01;;;;;;;14.33;11.20;;;;;;;23.56;90.59;99270.81;5036386;28;20166;-84
2022/07/02 01:03:30;;;;;;;13.33;11.60;;;;;;;21.60;90.46;98930.19;5035714;28;20161;-84
2022/07/02 01:05:56;;;;;;;14.17;12.17;;;;;;;23.72;90.05;99293.03;5038168;28;20184;-84
2022/07/02 01:11:08;;;;;;;14.13;11.60;;;;;;;23.20;89.35;99175.56;5036307;28;20549;-82
2022/07/02 01:13:34;;;;;;;15.73;11.10;;;;;;;23.74;89.68;99280.09;5035823;28;20631;-87
2022/07/02 01:16:00;;;;;;;15.73;11.73;;;;;;;23.03;89.15;99159.38;5035767;28;20162;-85
2022/07/02 01:18:26;;;;;;;14.73;11.30;;;;;;;23.09;89.26;99156.75;5035610;28;20190;-84
2022/07/02 01:20:52;;;;;;;14.37;12.13;;;;;;;20.53;89.12;98752.50;5035795;28;20162;-87
2022/07/02 01:23:18;;;;;;;14.67;12.13;;;;;;;21.54;89.49;98933.69;5035497;28;20273;-87
2022/07/02 01:25:53;;;;;;;14.90;11.80;;;;;;;23.54;90.93;99285.47;5036041;28;20174;-86
2022/07/02 01:28:19;;;;;;;16.10;12.13;;;;;;;23.57;90.92;99285.44;5034388;28;20157;-86
2022/07/02 01:30:46;;;;;;;15.77;12.27;;;;;;;23.60;91.22;99298.34;5018200;28;20178;-87
2022/07/02 01:33:12;;;;;;;16.50;12.20;;;;;;;23.11;91.00;99223.00;5017822;28;20611;-86
2022/07/02 01:35:37;;;;;;;14.93;12.20;;;;;;;23.51;91.10;99321.72;5035363;28;20162;-87
2022/07/02 01:38:03;;;;;;;15.07;12.50;;;;;;;23.54;91.11;99293.22;5035281;28;20356;-86
2022/07/02 01:40:28;;;;;;;14.00;12.37;;;;;;;20.16;90.83;98720.09;5035369;28;20158;-86
2022/07/02 01:42:54;;;;;;;26.23;11.90;;;;;;;20.81;89.87;98803.75;5035103;28;20170;-85
2022/07/02 01:45:20;;;;;;;13.80;12.23;;;;;;;21.67;89.16;98948.16;5035792;28;20166;-85
2022/07/02 01:47:45;;;;;;;15.47;12.33;;;;;;;23.39;89.58;99239.13;5035234;28;20162;-86
2022/07/02 01:50:11;;;;;;;14.67;12.50;;;;;;;22.95;90.03;99181.84;5051384;28;20238;-84
2022/07/02 01:52:37;;;;;;;16.27;12.20;;;;;;;23.01;90.73;99186.97;5054580;28;20235;-84
2022/07/02 01:55:02;;;;;;;15.60;12.50;;;;;;;20.93;88.33;98793.38;5051934;28;20231;-86
2022/07/02 01:57:30;;;;;;;14.10;12.27;;;;;;;21.51;86.72;98897.63;5054437;28;20189;-85
2022/07/02 01:59:56;;;;;;;13.57;11.83;;;;;;;23.35;86.55;99184.00;5054741;28;20706;-85
2022/07/02 02:02:22;;;;;;;13.47;12.07;;;;;;;21.38;86.56;98859.97;5054329;28;20173;-86
2022/07/02 02:04:47;;;;;;;18.60;12.43;;;;;;;23.60;86.72;99251.81;5054419;28;20533;-85
2022/07/02 02:07:12;;;;;;;15.33;12.00;;;;;;;23.88;86.57;99302.34;5054477;28;20174;-86
2022/07/02 02:09:38;;;;;;;14.40;12.20;;;;;;;23.82;87.94;99298.94;5053964;28;20176;-85
2022/07/02 02:12:04;;;;;;;16.23;11.97;;;;;;;22.34;86.50;99027.53;5054563;28;20614;-85
2022/07/02 02:14:29;;;;;;;15.60;12.67;;;;;;;20.27;86.43;98708.06;5054284;28;20633;-86
2022/07/02 02:16:55;;;;;;;17.13;13.20;;;;;;;21.49;85.58;98904.53;5054200;28;20532;-85
2022/07/02 02:19:20;;;;;;;16.03;13.03;;;;;;;23.04;86.39;99180.03;5054109;28;20169;-86
2022/07/02 02:21:45;;;;;;;16.77;13.57;;;;;;;23.09;86.76;99179.97;5054227;28;20563;-86
2022/07/02 02:24:13;;;;;;;19.30;13.93;;;;;;;23.76;86.94;99293.88;5036074;28;20173;-87
2022/07/02 02:26:42;;;;;;;17.70;12.90;;;;;;;22.41;86.74;99067.03;5053957;28;20562;-86
2022/07/02 02:29:08;;;;;;;15.20;12.43;;;;;;;21.74;85.61;98947.28;5054223;28;20174;-85
2022/07/02 02:31:34;;;;;;;19.37;14.00;;;;;;;23.67;85.87;99294.81;5053723;28;20298;-84
2022/07/02 02:33:59;;;;;;;16.60;13.17;;;;;;;21.10;84.98;98858.47;5054199;28;20595;-85
2022/07/02 02:36:25;;;;;;;19.87;13.77;;;;;;;23.79;84.62;99298.97;5053651;28;20174;-85
2022/07/02 02:38:50;;;;;;;18.07;14.03;;;;;;;20.09;85.77;98726.16;5053773;28;20189;-85
2022/07/02 02:41:16;;;;;;;17.50;13.20;;;;;;;21.99;85.60;99019.25;5053590;28;20226;-85
2022/07/02 02:43:42;;;;;;;15.97;14.20;;;;;;;23.52;86.20;99309.63;5053722;28;20551;-85
2022/07/02 02:46:08;;;;;;;20.20;14.07;;;;;;;21.86;86.39;99023.63;5054057;28;20177;-86
2022/07/02 02:48:35;;;;;;;23.13;14.37;;;;;;;20.62;87.20;98861.31;5053597;28;20162;-85
2022/07/02 02:51:02;;;;;;;17.87;14.10;;;;;;;20.64;88.91;98905.88;5035473;28;20176;-84
2022/07/02 02:53:28;;;;;;;17.77;14.03;;;;;;;20.11;90.49;98850.34;5055398;28;20240;-84
2022/07/02 02:55:53;;;;;;;19.33;14.10;;;;;;;20.82;89.78;98919.50;5055815;28;20174;-83
2022/07/02 02:58:19;;;;;;;17.73;13.50;;;;;;;22.47;88.96;99199.41;5053793;28;20623;-84
2022/07/02 03:00:45;;;;;;;17.10;13.77;;;;;;;21.39;88.81;99005.91;5054086;28;20219;-85
2022/07/02 03:03:10;;;;;;;17.90;14.00;;;;;;;22.09;89.74;99175.59;5053784;28;20158;-85
2022/07/02 03:05:36;;;;;;;20.93;14.30;;;;;;;20.41;88.54;98857.97;5053692;28;20166;-85
2022/07/02 03:08:01;;;;;;;18.73;15.50;;;;;;;20.31;90.53;98897.44;5053819;28;20563;-85
2022/07/02 03:10:27;;;;;;;18.97;15.47;;;;;;;20.86;89.33;98972.69;5053556;28;20245;-85
2022/07/02 03:12:52;;;;;;;19.20;15.33;;;;;;;22.05;89.10;99163.59;5053954;28;20637;-84
2022/07/02 03:15:18;;;;;;;18.93;15.03;;;;;;;20.33;89.16;98884.56;5053677;28;20169;-84
2022/07/02 03:17:43;;;;;;;19.93;15.43;;;;;;;19.81;88.90;98801.63;5053456;28;20193;-85
2022/07/02 03:20:09;;;;;;;18.80;14.87;;;;;;;21.87;88.49;99143.06;5053332;28;20170;-85
2022/07/02 03:22:34;;;;;;;20.13;15.37;;;;;;;20.99;88.92;99024.94;5052548;28;20191;-84
2022/07/02 03:25:00;;;;;;;19.40;15.37;;;;;;;22.01;89.45;99231.50;5053391;28;20162;-84
2022/07/02 03:27:25;;;;;;;20.53;15.73;;;;;;;21.81;90.17;99208.34;5053353;28;20161;-84
2022/07/02 03:29:51;;;;;;;19.90;16.37;;;;;;;21.68;91.26;99211.84;5053576;28;20169;-83
2022/07/02 03:32:18;;;;;;;21.53;16.13;;;;;;;22.46;90.65;99342.19;5035206;28;20662;-88
2022/07/02 03:34:43;;;;;;;20.53;15.60;;;;;;;21.05;89.64;99048.09;5035161;28;20220;-84
2022/07/02 03:37:09;;;;;;;22.67;16.53;;;;;;;22.41;87.73;99216.69;5052825;28;20618;-85
2022/07/02 03:39:35;;;;;;;21.27;15.97;;;;;;;22.62;86.89;99234.56;5052701;28;20165;-84
2022/07/02 03:42:00;;;;;;;20.97;16.47;;;;;;;22.69;85.98;99234.53;5053049;28;20157;-85
2022/07/02 03:44:25;;;;;;;23.37;17.10;;;;;;;23.35;86.39;99349.34;5052519;28;20165;-83
2022/07/02 03:46:51;;;;;;;22.50;15.73;;;;;;;22.68;86.27;99239.72;5053762;28;20169;-84
2022/07/02 03:49:16;;;;;;;23.17;17.27;;;;;;;21.39;85.79;98999.91;5052808;28;20630;-84
2022/07/02 03:51:42;;;;;;;22.13;16.13;;;;;;;22.31;85.25;99129.03;5053273;28;20176;-84
2022/07/02 03:54:07;;;;;;;21.50;16.40;;;;;;;21.80;85.03;99030.56;5052601;28;20185;-83
2022/07/02 03:56:32;;;;;;;22.33;15.93;;;;;;;21.05;84.16;98891.94;5053689;28;20166;-84
2022/07/02 03:58:58;;;;;;;22.00;15.37;;;;;;;23.99;83.51;99364.28;5034613;28;20273;-84
2022/07/02 04:01:23;;;;;;;22.53;16.77;;;;;;;20.56;83.08;98809.06;5052741;28;20613;-83
2022/07/02 04:03:49;;;;;;;24.67;17.07;;;;;;;23.59;84.15;99365.56;5053328;28;20248;-83
2022/07/02 04:06:14;;;;;;;26.10;17.83;;;;;;;22.58;83.42;99176.97;5055735;28;20161;-85
2022/07/02 04:08:40;;;;;;;25.97;18.03;;;;;;;23.31;86.12;99370.06;5055491;28;20687;-84
2022/07/02 04:11:05;;;;;;;28.00;18.90;;;;;;;22.80;85.14;99248.22;5035838;28;20236;-83
2022/07/02 04:13:30;;;;;;;29.00;19.60;;;;;;;22.13;85.92;99172.16;5053981;28;20165;-83
2022/07/02 04:15:56;;;;;;;25.20;18.73;;;;;;;21.53;83.92;99011.84;5023259;28;20186;-85
2022/07/02 04:18:22;;;;;;;25.60;19.10;;;;;;;21.49;83.08;98991.25;5034315;28;20208;-84
2022/07/02 04:20:47;;;;;;;28.30;19.47;;;;;;;22.38;83.40;99137.59;5053502;28;20191;-83
2022/07/02 04:23:12;;;;;;;26.60;18.20;;;;;;;23.86;82.96;99368.75;5052316;28;20645;-85
2022/07/02 04:25:38;;;;;;;25.10;19.47;;;;;;;23.65;84.59;99373.28;5053727;28;20176;-85
2022/07/02 04:28:04;;;;;;;25.03;19.13;;;;;;;20.41;87.49;98937.69;5052400;28;20193;-83
2022/07/02 04:30:29;;;;;;;25.07;18.73;;;;;;;22.54;87.65;99257.84;5053402;28;20659;-87
2022/07/02 04:32:55;;;;;;;23.50;17.83;;;;;;;21.40;89.01;99100.34;5034688;28;20252;-85
2022/07/02 04:35:20;;;;;;;24.10;18.03;;;;;;;21.81;89.81;99143.09;5034920;28;20519;-85
2022/07/02 04:37:46;;;;;;;25.80;18.70;;;;;;;23.42;89.58;99370.88;5051773;28;20205;-87
2022/07/02 04:40:11;;;;;;;25.80;18.20;;;;;;;21.27;88.57;98992.25;5051327;28;20323;-87
2022/07/02 04:42:37;;;;;;;24.30;17.90;;;;;;;22.34;87.03;99097.19;5051796;28;20228;-90
2022/07/02 04:45:03;;;;;;;21.20;16.10;;;;;;;24.05;83.92;99375.44;5052033;28;20168;-86
2022/07/02 04:47:28;;;;;;;19.40;14.90;;;;;;;23.95;82.51;99394.50;5052658;28;20157;-87
2022/07/02 04:49:54;;;;;;;17.80;15.40;;;;;;;21.83;81.84;99023.66;5052355;28;20176;-88
2022/07/02 04:52:19;;;;;;;20.47;16.10;;;;;;;21.67;82.78;99002.28;5051990;28;20203;-87
2022/07/02 04:54:44;;;;;;;25.37;19.37;;;;;;;23.07;83.36;99260.06;5052135;28;20574;-87
2022/07/02 04:57:10;;;;;;;21.27;17.30;;;;;;;21.64;83.56;99033.25;5051694;28;20166;-87
2022/07/02 04:59:35;;;;;;;21.33;17.80;;;;;;;21.71;82.51;99010.84;5052034;28;20211;-89
2022/07/02 05:02:01;;;;;;;18.43;15.53;;;;;;;23.42;82.37;99291.63;5052011;28;20192;-85
2022/07/02 05:04:26;;;;;;;18.63;15.20;;;;;;;24.17;80.89;99337.41;5052926;28;20165;-86
2022/07/02 05:06:52;;;;;;;22.13;17.40;;;;;;;23.72;81.16;99298.22;5034033;28;20206;-86
2022/07/02 05:09:17;;;;;;;21.80;16.43;;;;;;;20.90;79.64;98793.41;5050359;28;20234;-85
2022/07/02 05:11:43;;;;;;;19.33;16.10;;;;;;;21.75;81.32;98946.38;5051559;28;20161;-82
2022/07/02 05:14:08;;;;;;;21.73;18.77;;;;;;;24.29;81.76;99352.75;5051626;28;20162;-83
2022/07/02 05:16:34;;;;;;;21.30;16.30;;;;;;;24.40;78.93;99283.59;5052574;28;20179;-84
2022/07/02 05:18:59;;;;;;;20.60;16.97;;;;;;;23.57;76.62;99127.78;5054841;28;20181;-84
2022/07/02 05:21:25;;;;;;;21.43;16.60;;;;;;;24.37;77.35;99247.41;5051951;28;20597;-83
2022/07/02 05:23:50;;;;;;;19.67;17.07;;;;;;;23.96;74.69;99108.28;5052502;28;20549;-82
2022/07/02 05:26:16;;;;;;;28.93;18.20;;;;;;;24.64;76.66;99288.44;5052496;28;20581;-83
2022/07/02 05:28:41;;;;;;;17.63;15.77;;;;;;;23.93;76.64;99137.63;5054587;28;20626;-85
2022/07/02 05:31:08;;;;;;;18.67;16.17;;;;;;;24.77;74.63;99299.47;5054680;28;20196;-82
2022/07/02 05:33:33;;;;;;;22.30;18.23;;;;;;;23.53;74.29;99043.41;5051506;28;20232;-82
2022/07/02 05:36:00;;;;;;;19.50;16.30;;;;;;;23.21;73.75;99019.72;5051978;28;20174;-82
2022/07/02 05:38:25;;;;;;;20.37;15.50;;;;;;;25.91;71.60;99384.00;5051407;28;20189;-82
2022/07/02 05:40:50;;;;;;;20.40;16.60;;;;;;;25.70;70.07;99286.69;5051653;28;20162;-83
2022/07/02 05:43:16;;;;;;;20.87;15.90;;;;;;;24.77;68.72;99110.44;5053089;28;20194;-83
2022/07/02 05:45:41;;;;;;;19.43;15.97;;;;;;;;;;5053904;28;20214;-83
2022/07/02 05:48:07;;;;;;;18.60;15.37;;;;;;;24.16;69.68;99014.88;5055256;28;20656;-82
2022/07/02 05:50:32;;;;;;;17.50;15.70;;;;;;;26.31;68.72;99333.09;5055864;28;20654;-82
2022/07/02 05:52:57;;;;;;;20.97;14.10;;;;;;;25.87;67.14;99283.78;5054823;28;20272;-83
2022/07/02 05:55:23;;;;;;;18.70;14.23;;;;;;;24.06;69.52;99094.34;5055337;28;20173;-82
2022/07/02 05:57:48;;;;;;;16.77;14.20;;;;;;;25.50;68.66;99309.53;5055161;28;20328;-82
2022/07/02 06:00:14;;;;;;;20.03;14.70;;;;;;;23.86;68.13;99017.06;5055204;28;20580;-83
2022/07/02 06:02:39;;;;;;;16.80;13.70;;;;;;;25.27;65.49;99223.53;5037233;28;20640;-82
2022/07/02 06:07:50;;;;;;;16.33;12.90;;;;;;;24.99;66.58;99181.72;5055226;28;20251;-82
2022/07/02 06:10:19;;;;;;;20.83;14.00;;;;;;;26.75;65.76;99376.28;5054718;28;20617;-83
2022/07/02 06:12:52;;;;;;;20.77;14.25;;;;;;;25.73;64.53;99105.09;5054707;28;20170;-82
2022/07/02 06:15:18;;;;;;;17.92;13.95;;;;;;;24.88;64.38;98981.63;5054668;28;20153;-83
2022/07/02 06:17:44;;;;;;;17.17;14.10;;;;;;;27.12;65.31;99384.09;5054350;28;20212;-83
2022/07/02 06:20:11;;;;;;;15.70;13.52;;;;;;;25.01;66.61;99081.50;5054443;28;20167;-83
2022/07/02 06:22:37;;;;;;;17.38;13.02;;;;;;;26.98;65.51;99379.22;5054241;28;20227;-83
2022/07/02 06:25:03;;;;;;;16.73;13.55;;;;;;;27.09;65.69;99377.25;5054671;28;20257;-84
2022/07/02 06:27:33;;;;;;;15.63;12.77;;;;;;;26.87;64.51;99303.28;5054552;28;20621;-81
2022/07/02 06:29:58;;;;;;;15.75;13.02;;;;;;;27.13;62.29;99272.31;5054364;28;20173;-82
2022/07/02 06:32:24;;;;;;;14.93;13.32;;;;;;;27.48;61.80;99328.66;5054053;28;20309;-83
2022/07/02 06:34:49;;;;;;;16.95;13.40;;;;;;;26.62;62.67;99180.88;5054340;28;20591;-82
2022/07/02 06:37:15;;;;;;;15.23;13.27;;;;;;;26.57;61.92;99179.28;5053782;28;20239;-82
2022/07/02 06:39:40;;;;;;;21.15;14.15;;;;;;;26.81;59.63;99126.78;5053874;28;20173;-82
2022/07/02 06:42:22;;;;;;;17.40;13.68;;;;;;;28.27;59.50;99374.22;5054559;28;20161;-82
2022/07/02 06:44:50;;;;;;;16.40;14.68;;;;;;;26.74;60.06;99143.34;5054214;28;20166;-83
2022/07/02 06:47:16;;;;;;;18.10;14.70;;;;;;;28.30;59.78;99379.34;5053873;28;20176;-82
2022/07/02 06:49:42;;;;;;;18.70;15.00;;;;;;;28.54;57.75;99377.81;5053868;28;20162;-83
2022/07/02 06:52:08;;;;;;;16.17;14.18;;;;;;;27.92;58.31;99272.81;5053549;28;20160;-83
2022/07/02 06:54:35;;;;;;;19.65;14.88;;;;;;;29.03;57.14;99379.81;5054096;28;20182;-83
2022/07/02 06:57:01;;;;;;;19.17;15.18;;;;;;;27.26;56.57;99024.13;5052316;28;20197;-83
2022/07/02 06:59:26;;;;;;;18.95;15.63;;;;;;;27.90;55.49;99079.41;5053422;28;20168;-83
2022/07/02 07:01:52;;;;;;;18.17;15.05;;;;;;;27.65;54.92;99011.69;5053704;28;20160;-83
2022/07/02 07:04:17;;;;;;;21.75;16.95;;;;;;;28.38;54.13;99129.94;5053548;28;20214;-82
2022/07/02 07:06:44;;;;;;;21.52;15.95;;;;;;;28.86;53.84;99190.06;5053417;28;20164;-82
2022/07/02 07:09:09;;;;;;;18.15;15.35;;;;;;;27.50;53.75;98961.00;5054051;28;20180;-84
2022/07/02 07:11:35;;;;;;;17.70;14.63;;;;;;;29.54;54.07;99383.38;5053171;28;20615;-83
2022/07/02 07:14:00;;;;;;;15.75;14.05;;;;;;;27.35;54.53;99073.25;5053368;28;20591;-84
2022/07/02 07:16:26;;;;;;;18.95;15.57;;;;;;;28.14;55.06;99161.97;5053441;28;20195;-83
2022/07/02 07:21:19;;;;;;;17.65;15.05;;;;;;;29.67;54.14;99391.63;5054064;28;20161;-84
2022/07/02 07:23:46;;;;;;;19.77;15.18;;;;;;;29.61;53.62;99314.38;5054018;28;20205;-82
2022/07/02 07:26:11;;;;;;;16.35;14.52;;;;;;;29.25;51.89;99200.91;5053685;28;20170;-83
2022/07/02 07:28:37;;;;;;;17.80;14.75;;;;;;;29.97;52.26;99264.44;5053385;28;20545;-83
2022/07/02 07:31:02;;;;;;;15.07;13.57;;;;;;;30.15;49.95;99289.84;5053514;28;20547;-82
2022/07/02 07:33:28;;;;;;;15.63;13.43;;;;;;;29.93;50.12;99291.56;5053343;28;20764;-82
2022/07/02 07:35:53;;;;;;;19.35;14.93;;;;;;;29.95;50.59;99240.13;5053262;28;20184;-82
2022/07/02 07:38:19;;;;;;;14.52;13.07;;;;;;;28.55;49.32;99132.00;5053284;28;20337;-83
2022/07/02 07:40:44;;;;;;;16.70;13.38;;;;;;;29.02;50.46;99213.84;5053327;28;20165;-82
2022/07/02 07:43:09;;;;;;;14.68;13.18;;;;;;;27.56;49.90;98918.34;5053064;28;20156;-82
2022/07/02 07:45:35;;;;;;;15.07;12.95;;;;;;;29.21;50.40;99287.94;5056084;28;20165;-82
2022/07/02 07:48:00;;;;;;;17.15;12.45;;;;;;;27.41;49.17;98932.66;5053236;28;20158;-84
2022/07/02 07:50:27;;;;;;;15.18;12.98;;;;;;;29.30;48.65;99109.44;5053113;28;20164;-84
2022/07/02 07:52:52;;;;;;;16.08;14.20;;;;;;;29.22;50.24;99081.03;5053043;28;20164;-84
2022/07/02 07:55:17;;;;;;;19.90;14.60;;;;;;;30.64;49.32;99296.69;5052774;28;20167;-83
2022/07/02 07:57:43;;;;;;;17.85;15.30;;;;;;;29.15;47.98;98967.41;5052507;28;20175;-82
2022/07/02 08:00:09;;;;;;;16.35;14.70;;;;;;;31.79;48.76;99389.63;5052365;28;20167;-82
2022/07/02 08:02:34;;;;;;;17.65;14.73;;;;;;;30.74;50.36;99416.53;5052305;28;20176;-82
2022/07/02 08:05:00;;;;;;;15.52;13.98;;;;;;;30.78;49.75;99320.53;5052479;28;20172;-83
2022/07/02 08:07:25;;;;;;;16.80;15.00;;;;;;;30.07;49.44;99210.94;5052287;28;20155;-84
2022/07/02 08:09:54;;;;;;;17.00;14.93;;;;;;;29.49;47.94;99008.72;5051980;28;20164;-82
2022/07/02 08:12:22;;;;;;;17.02;15.23;;;;;;;31.26;47.55;99281.94;5052159;28;20184;-83
2022/07/02 08:14:48;;;;;;;18.40;15.27;;;;;;;31.12;48.10;99289.53;5034164;28;20159;-83
2022/07/02 08:17:14;;;;;;;17.70;15.50;;;;;;;29.84;48.61;99154.38;5052028;28;20688;-83
2022/07/02 08:19:39;;;;;;;17.02;15.40;;;;;;;31.24;46.88;99303.84;5051835;28;20644;-83
2022/07/02 08:22:05;;;;;;;17.48;15.63;;;;;;;32.10;46.50;99345.53;5034336;28;20164;-84
2022/07/02 08:24:30;;;;;;;18.10;16.08;;;;;;;31.52;45.50;99194.50;5052132;28;20162;-83
2022/07/02 08:26:56;;;;;;;17.90;16.17;;;;;;;31.98;44.54;99330.31;5051916;28;20175;-83
2022/07/02 08:29:21;;;;;;;22.38;15.85;;;;;;;32.68;44.54;99405.81;5051863;28;20164;-82
2022/07/02 08:31:46;;;;;;;19.80;16.27;;;;;;;29.92;45.13;98911.28;5051683;28;20251;-82
2022/07/02 08:34:12;;;;;;;17.42;15.50;;;;;;;32.37;43.95;99301.47;5051687;28;20565;-82
2022/07/02 08:36:37;;;;;;;18.00;14.02;;;;;;;32.60;42.42;99274.22;5052307;28;20610;-83
2022/07/02 08:39:03;;;;;;;16.73;15.02;;;;;;;33.14;42.61;99321.41;5051792;28;20185;-83
2022/07/02 08:41:29;;;;;;;19.83;14.63;;;;;;;33.02;43.54;99305.41;5051878;28;20169;-83
2022/07/02 08:43:57;;;;;;;16.15;14.15;;;;;;;34.02;42.37;99413.25;5052002;28;20169;-84
2022/07/02 08:46:25;;;;;;;14.82;13.43;;;;;;;33.01;41.09;99343.03;5051861;28;20168;-84
2022/07/02 08:48:50;;;;;;;14.60;13.10;;;;;;;32.32;42.92;99425.78;5051476;28;20154;-83
2022/07/02 08:51:22;;;;;;;14.68;13.18;;;;;;;33.06;41.17;99419.78;5054089;28;20172;-83
2022/07/02 08:53:47;;;;;;;14.30;12.55;;;;;;;31.52;41.52;99176.16;5053252;28;20542;-83
2022/07/02 08:56:17;;;;;;;13.98;12.57;;;;;;;30.86;40.73;99050.00;5051807;28;20240;-83
2022/07/02 08:58:44;;;;;;;13.57;11.43;;;;;;;32.60;40.69;99411.44;5051518;28;20186;-83
2022/07/02 09:01:10;;;;;;;13.55;12.18;;;;;;;32.11;40.80;99260.75;5051470;28;20162;-83
2022/07/02 09:03:38;;;;;;;18.23;14.07;;;;;;;32.65;42.96;99425.16;5051984;28;20639;-83
2022/07/02 09:06:06;;;;;;;14.80;13.32;;;;;;;30.72;42.01;99054.97;5051336;28;20586;-84
2022/07/02 09:08:31;;;;;;;13.30;12.00;;;;;;;32.53;40.44;99222.94;5051477;28;20207;-82
2022/07/02 09:10:57;;;;;;;14.68;12.70;;;;;;;33.51;39.82;99332.69;5051360;28;20166;-84
2022/07/02 09:13:24;;;;;;;15.10;13.20;;;;;;;31.46;39.90;99008.91;5051838;28;20161;-83
2022/07/02 09:15:51;;;;;;;14.55;12.98;;;;;;;32.36;39.39;99078.78;5051507;28;20165;-83
2022/07/02 09:18:17;;;;;;;13.82;12.38;;;;;;;33.64;38.62;99263.75;5051461;28;20189;-84
2022/07/02 09:20:43;;;;;;;13.68;12.35;;;;;;;34.55;38.37;99421.00;5053284;28;20157;-86
2022/07/02 09:23:10;;;;;;;15.75;13.60;;;;;;;33.72;39.13;99336.88;5055492;28;20158;-83
2022/07/02 09:25:35;;;;;;;13.98;12.68;;;;;;;31.75;38.35;98992.72;5055135;28;20169;-84
2022/07/02 09:28:04;;;;;;;14.10;12.70;;;;;;;34.09;38.45;99362.94;5055448;28;20157;-84
2022/07/02 09:30:36;;;;;;;20.35;12.75;;;;;;;34.80;38.08;99395.09;5055785;28;20219;-84
2022/07/02 09:35:46;;;;;;;13.38;11.55;;;;;;;33.44;37.85;99227.13;5055628;28;20298;-82
2022/07/02 09:38:12;;;;;;;13.45;12.20;;;;;;;34.55;38.12;99411.31;5055226;28;20573;-83
2022/07/02 09:40:49;;;;;;;14.82;13.05;;;;;;;33.37;37.97;99172.41;5055399;28;20165;-82
2022/07/02 09:43:24;;;;;;;15.93;12.35;;;;;;;33.55;38.46;99344.72;5055109;28;20165;-84
2022/07/02 09:45:49;;;;;;;14.23;12.23;;;;;;;34.27;37.92;99403.19;5054922;28;20169;-83
2022/07/02 09:48:17;;;;;;;13.63;12.20;;;;;;;33.61;37.70;99242.88;5054814;28;20633;-85
2022/07/02 09:50:42;;;;;;;13.52;12.20;;;;;;;32.31;36.82;98940.09;5054917;28;20635;-83
2022/07/02 09:53:11;;;;;;;13.63;12.32;;;;;;;34.79;36.64;99338.13;5055005;28;20257;-84
2022/07/02 09:55:37;;;;;;;14.20;12.55;;;;;;;34.72;36.03;99319.19;5055062;28;20166;-84
2022/07/02 09:58:04;;;;;;;14.30;11.98;;;;;;;34.98;36.23;99401.94;5054853;28;20197;-83
2022/07/02 10:00:33;;;;;;;13.38;11.98;;;;;;;33.11;36.40;99025.03;5054778;28;20193;-83
2022/07/02 10:03:01;;;;;;;13.40;12.10;;;;;;;32.87;35.60;99000.09;5054767;28;20172;-82
2022/07/02 10:05:31;;;;;;;13.30;11.65;;;;;;;35.25;35.22;99402.19;5055280;28;20158;-83
2022/07/02 10:07:58;;;;;;;18.42;12.15;;;;;;;35.52;35.33;99398.81;5054522;28;20177;-83
2022/07/02 10:10:38;;;;;;;13.35;11.93;;;;;;;35.65;34.66;99401.63;5056708;28;20169;-83
2022/07/02 10:13:04;;;;;;;12.85;11.65;;;;;;;35.07;34.43;99324.28;5054719;28;20157;-84
2022/07/02 10:15:32;;;;;;;14.05;11.18;;;;;;;33.25;34.53;99048.75;5054686;28;20180;-85
2022/07/02 10:17:59;;;;;;;12.98;11.50;;;;;;;35.07;34.49;99345.34;5054458;28;20189;-83
2022/07/02 10:20:24;;;;;;;13.45;12.05;;;;;;;33.16;35.05;99064.13;5054519;28;20184;-83
2022/07/02 10:22:51;;;;;;;14.52;11.90;;;;;;;35.50;35.68;99400.69;5054487;28;20170;-83
2022/07/02 10:25:18;;;;;;;12.68;11.38;;;;;;;35.11;34.79;99342.44;5054857;28;20189;-83
2022/07/02 10:27:45;;;;;;;17.77;12.57;;;;;;;34.54;34.98;99164.16;5054624;28;20153;-83
2022/07/02 10:30:11;;;;;;;12.65;11.43;;;;;;;35.07;34.59;99290.06;5053976;28;20629;-83
2022/07/02 10:33:02;;;;;;;11.63;10.52;;;;;;;34.96;35.53;99385.41;5053713;28;20228;-84
2022/07/02 10:35:28;;;;;;;13.35;10.80;;;;;;;34.98;35.73;99380.88;5054191;28;20640;-83
2022/07/02 10:37:58;;;;;;;11.45;10.15;;;;;;;34.23;34.64;99215.00;5053896;28;20200;-81
2022/07/02 10:40:23;;;;;;;12.70;9.98;;;;;;;35.50;34.73;99395.44;5054533;28;20176;-83
2022/07/02 10:42:51;;;;;;;11.45;10.30;;;;;;;35.06;35.23;99391.88;5054041;28;20158;-82
2022/07/02 10:45:18;;;;;;;10.00;9.07;;;;;;;34.75;34.81;99386.59;5053998;28;20169;-83
2022/07/02 10:48:01;;;;;;;9.45;8.57;;;;;;;35.16;33.69;99387.75;5058027;28;20162;-83
2022/07/02 10:50:37;;;;;;;10.43;8.77;;;;;;;35.58;33.71;99381.84;5055575;28;20552;-84
2022/07/02 10:53:22;;;;;;;9.80;8.68;;;;;;;34.69;33.56;99219.41;5053852;28;20165;-83
2022/07/02 10:55:50;;;;;;;9.55;8.20;;;;;;;36.00;32.28;99378.44;5053868;28;20165;-83
2022/07/02 10:58:24;;;;;;;9.90;7.90;;;;;;;34.86;33.11;99263.19;5053793;28;20235;-83
2022/07/02 11:00:51;;;;;;;9.50;8.45;;;;;;;35.50;33.41;99379.63;5053824;28;20157;-83
2022/07/02 11:03:16;;;;;;;9.25;8.30;;;;;;;35.65;33.05;99377.94;5054196;28;20165;-83
2022/07/02 11:05:58;;;;;;;10.48;8.38;;;;;;;35.41;33.51;99377.53;5036154;28;20185;-83
2022/07/02 11:08:45;;;;;;;11.60;9.27;;;;;;;35.11;34.00;99367.94;5053355;28;20157;-83
2022/07/02 11:11:17;;;;;;;12.77;10.27;;;;;;;34.98;34.56;99363.31;5053499;28;20164;-83
2022/07/02 11:14:08;;;;;;;10.18;8.90;;;;;;;35.16;33.97;99379.03;5053535;28;20166;-83
2022/07/02 11:16:39;;;;;;;11.77;9.68;;;;;;;35.23;34.52;99360.16;5053507;28;20188;-83
2022/07/02 11:19:15;;;;;;;10.63;9.52;;;;;;;34.69;35.27;99347.47;5053418;28;20192;-84
2022/07/02 11:21:41;;;;;;;10.45;9.18;;;;;;;32.42;34.54;98929.91;5053194;28;20161;-83
2022/07/02 11:24:07;;;;;;;10.25;9.15;;;;;;;34.59;35.17;99281.34;5054730;28;20231;-83
2022/07/02 11:26:32;;;;;;;10.75;9.65;;;;;;;33.85;34.91;99172.41;5053180;28;20157;-83
2022/07/02 11:29:04;;;;;;;10.05;8.93;;;;;;;34.25;34.70;99219.28;5053050;28;20168;-83